Big Bend Natl Park, Texas
Current Conditions -  °F | °C
As of 2:35 PM on Wednesday 26 Nov 2014 (Local Time) from KPRS Reporting Station
Clear Clear  
Wind Chill: 65°   Ceiling: Unl
Heat Index: 65°   Visibility: 10mi
Dew Point: 16°   Wind: 0mph
Humidity: 15%   Direction: NA
Pressure: 30.26"   Gusts: NA
Location:  29.2°N, 103.2°W
Report Text: KPRS 262035Z AUTO 00000KT 10SM CLR 18/M09 A3026 RMK AO2 T01821087
Loading
Personal Weather Stations






























Interactive Weather Map New forecast layout! Learn more

10-Day Weather Forecast

Advertisements
Track Severe Weather on mobile